createdAt,value
2019-06-07T00:03:23.626Z,40.31
2019-06-07T00:08:24.954Z,40.37
2019-06-07T00:13:22.449Z,40.43
2019-06-07T00:18:26.296Z,40.46
2019-06-07T00:23:29.563Z,40.44
2019-06-07T00:28:32.778Z,40.46
2019-06-07T00:33:35.992Z,40.38
2019-06-07T00:38:39.209Z,40.26
2019-06-07T00:43:42.409Z,40.22
2019-06-07T00:48:45.637Z,40.28
2019-06-07T00:53:48.840Z,40.22
2019-06-07T00:59:10.198Z,40.41
2019-06-07T01:03:57.043Z,40.43
2019-06-07T01:09:00.260Z,40.60
2019-06-07T01:14:03.936Z,40.85
2019-06-07T01:19:07.174Z,41.14
2019-06-07T01:24:12.481Z,41.36
2019-06-07T01:29:17.776Z,41.55
2019-06-07T01:34:21.239Z,41.83
2019-06-07T01:39:30.982Z,42.05
2019-06-07T01:44:31.011Z,42.26
2019-06-07T01:49:34.635Z,42.44
2019-06-07T01:54:58.650Z,42.50
2019-06-07T01:59:42.796Z,42.77
2019-06-07T02:04:46.012Z,42.75
2019-06-07T02:09:49.223Z,42.98
2019-06-07T02:14:52.439Z,42.85
2019-06-07T02:19:55.650Z,43.02
2019-06-07T02:25:34.669Z,43.08
2019-06-07T02:30:35.311Z,42.93
2019-06-07T02:35:09.980Z,43.09
2019-06-07T02:40:14.274Z,43.02
2019-06-07T02:45:18.864Z,43.27
2019-06-07T02:50:23.124Z,43.27
2019-06-07T02:55:29.592Z,43.45
2019-06-07T03:01:07.103Z,43.92
2019-06-07T03:05:53.194Z,44.16
2019-06-07T03:10:56.402Z,44.19
2019-06-07T03:16:01.399Z,44.17
2019-06-07T03:21:05.890Z,43.94
2019-06-07T03:26:09.176Z,43.85
2019-06-07T03:31:12.414Z,43.64
2019-06-07T03:36:23.802Z,43.37
2019-06-07T03:41:20.559Z,43.15
2019-06-07T03:46:23.774Z,43.24
2019-06-07T03:51:28.425Z,42.93
2019-06-07T03:56:33.767Z,42.86
2019-06-07T04:01:38.537Z,42.87
2019-06-07T04:06:42.769Z,42.62
2019-06-07T04:11:46.232Z,42.52
2019-06-07T04:16:49.456Z,42.50
2019-06-07T04:21:52.691Z,42.37
2019-06-07T04:26:55.916Z,42.42
2019-06-07T04:31:59.152Z,42.39
2019-06-07T04:37:02.379Z,42.42
2019-06-07T04:42:05.599Z,42.32
2019-06-07T04:47:08.815Z,42.32
2019-06-07T04:52:12.048Z,42.24
2019-06-07T04:57:15.262Z,42.30
2019-06-07T05:02:18.498Z,42.34
2019-06-07T05:07:21.739Z,42.37
2019-06-07T05:12:24.959Z,42.26
2019-06-07T05:17:28.858Z,42.26
2019-06-07T05:22:34.926Z,42.30
2019-06-07T05:27:41.210Z,42.58
2019-06-07T05:32:45.962Z,42.18
2019-06-07T05:37:48.032Z,42.15
2019-06-07T05:42:51.245Z,42.19
2019-06-07T05:47:54.933Z,42.08
2019-06-07T05:52:58.193Z,42.08
2019-06-07T05:58:01.404Z,42.19
2019-06-07T06:03:06.114Z,42.24
2019-06-07T06:08:09.534Z,42.21
2019-06-07T06:13:12.753Z,42.22
2019-06-07T06:18:15.969Z,42.17
2019-06-07T06:23:19.215Z,42.17
2019-06-07T06:28:22.501Z,42.21
2019-06-07T06:33:33.668Z,42.20
2019-06-07T06:38:31.468Z,42.12
2019-06-07T06:43:34.775Z,41.87
2019-06-07T06:48:40.759Z,41.81
2019-06-07T06:53:43.805Z,41.80
2019-06-07T06:59:26.794Z,41.95
2019-06-07T07:04:13.055Z,41.91
2019-06-07T07:08:57.879Z,41.79
2019-06-07T07:14:01.051Z,42.13
2019-06-07T07:19:04.271Z,42.27
2019-06-07T07:24:21.043Z,41.63
2019-06-07T07:29:12.445Z,41.23
2019-06-07T07:34:36.042Z,41.68
2019-06-07T07:39:20.640Z,42.63
2019-06-07T07:44:23.872Z,43.13
2019-06-07T07:49:27.091Z,43.29
2019-06-07T07:54:30.322Z,43.31
2019-06-07T07:59:42.183Z,42.34
2019-06-07T08:05:13.739Z,42.07
2019-06-07T08:09:44.210Z,42.51
2019-06-07T08:14:47.828Z,42.44
2019-06-07T08:19:55.017Z,42.64
2019-06-07T08:24:59.868Z,42.32
2019-06-07T08:30:25.896Z,41.69
2019-06-07T08:35:07.824Z,42.04
2019-06-07T08:40:11.162Z,41.36
2019-06-07T08:45:15.105Z,41.40
2019-06-07T08:50:18.347Z,41.89
2019-06-07T08:55:23.281Z,40.87
2019-06-07T09:00:45.414Z,40.75
2019-06-07T09:05:31.457Z,40.75
2019-06-07T09:10:34.666Z,41.14
2019-06-07T09:15:37.921Z,42.12
2019-06-07T09:20:48.672Z,41.54
2019-06-07T09:26:00.979Z,41.48
2019-06-07T09:30:59.197Z,41.61
2019-06-07T09:36:07.898Z,41.67
2019-06-07T09:41:07.639Z,41.91
2019-06-07T09:46:15.437Z,41.91
2019-06-07T09:51:20.007Z,41.51
2019-06-07T09:56:21.619Z,41.22
2019-06-07T10:01:24.830Z,41.42
2019-06-07T10:06:28.788Z,41.24
2019-06-07T10:11:32.007Z,42.09
2019-06-07T10:16:46.230Z,42.22
2019-06-07T10:21:40.180Z,41.70
2019-06-07T10:26:43.449Z,41.19
2019-06-07T10:31:46.681Z,41.58
2019-06-07T10:36:50.012Z,41.85
2019-06-07T10:41:54.156Z,41.93
2019-06-07T10:46:59.256Z,42.06
2019-06-07T10:52:04.958Z,42.67
2019-06-07T10:57:10.964Z,42.91
2019-06-07T11:02:14.042Z,42.33
2019-06-07T11:07:17.459Z,42.76
2019-06-07T11:12:20.687Z,42.19
2019-06-07T11:17:23.883Z,43.01
2019-06-07T11:22:27.097Z,42.74
2019-06-07T11:27:30.307Z,43.00
2019-06-07T11:32:33.533Z,43.46
2019-06-07T11:37:36.804Z,43.12
2019-06-07T11:42:40.453Z,43.31
2019-06-07T11:47:43.649Z,44.15
2019-06-07T11:52:46.876Z,43.12
2019-06-07T11:57:50.095Z,43.79
2019-06-07T12:02:53.525Z,43.83
2019-06-07T12:07:57.256Z,44.55
2019-06-07T12:13:00.753Z,43.34
2019-06-07T12:18:03.972Z,44.11
2019-06-07T12:23:07.214Z,43.87
2019-06-07T12:28:10.700Z,44.15
2019-06-07T12:33:15.388Z,44.17
2019-06-07T12:38:19.391Z,45.04
2019-06-07T12:43:23.831Z,44.68
2019-06-07T12:48:27.063Z,45.21
2019-06-07T12:53:30.275Z,45.00
2019-06-07T12:58:36.239Z,44.69
2019-06-07T13:03:38.447Z,43.92
2019-06-07T13:08:41.749Z,44.60
2019-06-07T13:13:44.972Z,44.55
2019-06-07T13:18:48.182Z,44.99
2019-06-07T13:23:51.428Z,45.04
2019-06-07T13:28:54.634Z,45.32
2019-06-07T13:33:57.848Z,45.45
2019-06-07T13:39:01.088Z,45.47
2019-06-07T13:44:04.299Z,44.57
2019-06-07T13:49:07.505Z,44.07
2019-06-07T13:54:10.737Z,43.36
2019-06-07T13:59:13.951Z,43.86
2019-06-07T14:04:18.699Z,44.53
2019-06-07T14:09:23.300Z,44.41
2019-06-07T14:14:27.493Z,44.33
2019-06-07T14:19:31.604Z,43.99
2019-06-07T14:24:34.821Z,44.10
2019-06-07T14:29:38.127Z,44.01
2019-06-07T14:34:41.350Z,44.40
2019-06-07T14:39:45.430Z,43.93
2019-06-07T14:44:48.641Z,44.25
2019-06-07T14:49:51.869Z,44.29
2019-06-07T14:54:55.082Z,44.30
2019-06-07T14:59:58.361Z,44.94
2019-06-07T15:05:01.569Z,44.84
2019-06-07T15:10:05.933Z,44.63
2019-06-07T15:15:09.630Z,44.49
2019-06-07T15:20:12.850Z,44.89
2019-06-07T15:25:16.075Z,44.54
2019-06-07T15:30:19.284Z,44.37
2019-06-07T15:35:22.520Z,44.12
2019-06-07T15:40:25.731Z,43.92
2019-06-07T15:45:29.345Z,43.69
2019-06-07T15:50:34.168Z,43.91
2019-06-07T15:55:43.853Z,43.69
2019-06-07T16:00:42.742Z,43.81
2019-06-07T16:05:46.041Z,43.92
2019-06-07T16:10:49.308Z,43.73
2019-06-07T16:15:52.462Z,43.53
2019-06-07T16:20:55.707Z,43.76
2019-06-07T16:25:58.921Z,43.42
2019-06-07T16:31:02.136Z,43.44
2019-06-07T16:36:05.400Z,44.10
2019-06-07T16:41:08.614Z,43.88
2019-06-07T16:46:11.819Z,44.03
2019-06-07T16:51:15.055Z,44.46
2019-06-07T16:56:18.657Z,44.62
2019-06-07T17:01:21.914Z,44.82
2019-06-07T17:06:25.138Z,44.96
2019-06-07T17:11:28.498Z,44.83
2019-06-07T17:16:31.822Z,44.83
2019-06-07T17:21:35.088Z,44.86
2019-06-07T17:26:39.408Z,44.91
2019-06-07T17:31:44.607Z,44.95
2019-06-07T17:36:48.667Z,44.84
2019-06-07T17:42:01.722Z,44.93
2019-06-07T17:46:57.118Z,44.79
2019-06-07T17:52:00.368Z,45.02
2019-06-07T17:57:03.592Z,45.02
2019-06-07T18:02:14.910Z,45.07
2019-06-07T18:07:11.802Z,45.33
2019-06-07T18:12:15.081Z,45.27
2019-06-07T18:17:33.495Z,45.43
2019-06-07T18:22:23.336Z,45.44
2019-06-07T18:27:26.533Z,45.75
2019-06-07T18:32:29.769Z,45.67
2019-06-07T18:37:33.043Z,45.75
2019-06-07T18:42:36.305Z,46.05
2019-06-07T18:47:39.568Z,46.08
2019-06-07T18:52:44.661Z,46.18
2019-06-07T18:57:48.162Z,46.15
2019-06-07T19:02:51.873Z,46.25
2019-06-07T19:07:56.574Z,46.17
2019-06-07T19:13:00.633Z,46.30
2019-06-07T19:18:04.030Z,46.26
2019-06-07T19:23:07.380Z,46.27
2019-06-07T19:28:10.615Z,46.31
2019-06-07T19:33:13.896Z,46.44
2019-06-07T19:38:17.333Z,46.62
2019-06-07T19:43:20.643Z,46.52
2019-06-07T19:48:23.863Z,46.41
2019-06-07T19:53:27.092Z,46.49
2019-06-07T19:58:30.329Z,46.70
2019-06-07T20:03:33.535Z,46.77
2019-06-07T20:08:36.765Z,46.92
2019-06-07T20:13:40.048Z,47.10
2019-06-07T20:18:43.273Z,46.99
2019-06-07T20:23:46.661Z,47.29
2019-06-07T20:28:49.871Z,47.11
2019-06-07T20:33:53.088Z,47.11
2019-06-07T20:38:57.869Z,47.23
2019-06-07T20:44:01.725Z,47.41
2019-06-07T20:49:06.495Z,47.49
2019-06-07T20:54:09.843Z,47.50
2019-06-07T20:59:13.108Z,47.49
2019-06-07T21:04:16.308Z,47.30
2019-06-07T21:09:19.517Z,47.57
2019-06-07T21:14:22.789Z,47.62
2019-06-07T21:19:25.988Z,47.59
2019-06-07T21:24:29.232Z,47.58
2019-06-07T21:29:32.534Z,47.69
2019-06-07T21:34:35.765Z,47.89
2019-06-07T21:39:39.080Z,47.97
2019-06-07T21:44:42.304Z,48.02
2019-06-07T21:49:45.593Z,47.93
2019-06-07T21:54:48.842Z,47.96
2019-06-07T21:59:52.072Z,47.40
2019-06-07T22:04:55.309Z,47.58
2019-06-07T22:09:58.549Z,47.36
2019-06-07T22:15:02.052Z,47.30
2019-06-07T22:20:08.746Z,47.31
2019-06-07T22:25:13.094Z,47.23
2019-06-07T22:30:16.399Z,47.43
2019-06-07T22:35:19.639Z,47.40
2019-06-07T22:40:23.040Z,47.51
2019-06-07T22:45:26.251Z,47.63
2019-06-07T22:50:29.479Z,47.53
2019-06-07T22:55:32.734Z,47.47
2019-06-07T23:00:37.439Z,47.58
2019-06-07T23:05:40.639Z,47.66
2019-06-07T23:10:43.900Z,47.79
2019-06-07T23:15:47.127Z,47.75
2019-06-07T23:20:50.352Z,47.90
2019-06-07T23:25:53.592Z,47.71
2019-06-07T23:30:56.813Z,47.89
2019-06-07T23:36:00.047Z,47.89
2019-06-07T23:41:03.316Z,47.77
2019-06-07T23:46:06.532Z,47.89
2019-06-07T23:51:09.733Z,47.83
2019-06-07T23:56:13.775Z,47.88
